• Join FlightAware (Why Join?)
  • Login
  • US Flag 
08:28PM EDT


 

Airport Tracker/Info


-or-


 

Live Flight TrackerFlight Track Log ✈ UAL4257 ✈ 18-Jun-2013 ✈ MMMY / MTY - KIAH

Flight Track Log - Related Links

Times and Time Zones

All times are in EDT time to prevent confusion due to time zone crossing. See the UAL4257 flight status page for this flight to view local times or setup timezone preferences in your user account.

Time Position Orientation Groundspeed Altitude Reporting Facility
EDT Latitude Longitude Course Direction KTS MPH feet Rate Location/Type
12:22PM 26.2612 -99.5871 44° Northeast  Level Estimated
12:22PM 25.9619 -99.8447 44° Northeast 299 344 11,800  Level Houston Center
12:23PM 26.3327 -99.5095 44° Northeast  Level Estimated
12:23PM 26.0406 -99.7883 33° Northeast 323 372 12,800  Level Houston Center
12:24PM 26.4042 -99.4318 44° Northeast  Level Estimated
12:24PM 26.1200 -99.6897 48° Northeast 339 390 14,000  Level Houston Center
12:25PM 26.4756 -99.3541 44° Northeast  Level Estimated
12:25PM 26.1883 -99.6028 49° Northeast 355 409 15,000  Level Houston Center
12:26PM 26.5374 -99.2867 44° Northeast  Level Estimated
12:26PM 26.2578 -99.5153 48° Northeast 367 422 16,100  Level Houston Center
12:27PM 26.5991 -99.2192 44° Northeast  Level Estimated
12:27PM 26.3289 -99.4278 48° Northeast 375 432 17,000  Level Houston Center
12:28PM 26.3989 -99.3406 48° Northeast 377 434 18,100 1,080 Climbing Houston Center
12:29PM 26.4939 -99.2458 42° Northeast 382 440 19,300 1,020 Climbing Houston Center
12:30PM 26.5753 -99.1658 41° Northeast 387 445 20,300 960 Climbing Houston Center
12:31PM 26.6567 -99.0878 41° Northeast 387 445 21,300 960 Climbing Houston Center
12:32PM 26.7403 -99.0058 41° Northeast 395 455 22,300 960 Climbing Houston Center
12:33PM 26.8239 -98.9236 41° Northeast 399 459 23,300 960 Climbing Houston Center
12:34PM 26.9072 -98.8414 41° Northeast 401 461 24,300 1,020 Climbing Houston Center
12:35PM 27.0075 -98.7419 41° Northeast 402 463 25,500 1,020 Climbing Houston Center
12:36PM 27.0917 -98.6603 41° Northeast 403 464 26,500 960 Climbing Houston Center
12:37PM 27.1744 -98.5772 42° Northeast 403 464 27,500 960 Climbing Houston Center
12:38PM 27.2586 -98.4944 41° Northeast 404 465 28,500 1,020 Climbing Houston Center
12:39PM 27.3597 -98.3933 42° Northeast 406 467 29,700 1,020 Climbing Houston Center
12:40PM 27.4444 -98.3086 42° Northeast 409 471 30,700 600 Climbing Houston Center
12:41PM 27.5311 -98.2231 41° Northeast 413 475 31,000 120 Climbing Houston Center
12:42PM 27.6231 -98.1311 42° Northeast 435 501 31,000  Level Houston Center
12:43PM 27.7164 -98.0375 42° Northeast 449 517 31,000  Level Houston Center
12:44PM 27.8286 -97.9236 42° Northeast 452 520 31,000  Level Houston Center
12:46PM 27.9242 -97.8306 41° Northeast 453 521 31,000  Level Houston Center
12:47PM 28.0208 -97.7319 42° Northeast 454 522 31,000  Level Houston Center
12:48PM 28.1161 -97.6378 41° Northeast 454 522 31,000  Level Houston Center
12:49PM 28.2100 -97.5419 42° Northeast 456 525 31,000  Level Houston Center
12:50PM 28.3042 -97.4467 42° Northeast 454 522 31,000  Level Houston Center
12:51PM 28.3989 -97.3494 42° Northeast 457 526 31,000  Level Houston Center
12:52PM 28.5122 -97.2350 42° Northeast 456 525 31,000  Level Houston Center
12:53PM 28.6061 -97.1394 42° Northeast 455 524 31,000  Level Houston Center
12:54PM 28.7003 -97.0436 42° Northeast 455 524 31,000 -300 Level Houston Center
12:55PM 28.7942 -96.9464 42° Northeast 457 526 30,400 -1,260 Descending Houston Center
12:56PM 28.8894 -96.8492 42° Northeast 461 531 28,500 -2,280 Descending Houston Center
12:57PM 29.0022 -96.7306 43° Northeast 463 533 25,700 -2,760 Descending Houston Center
12:58PM 29.0981 -96.6325 42° Northeast 466 536 22,900 -2,640 Descending Houston Center
12:59PM 29.1919 -96.5369 42° Northeast 460 529 20,300 -2,640 Descending Houston Center
01:00PM 29.2622 -96.4639 42° Northeast 436 502 18,300 -2,520 Descending Houston Center
01:01PM 29.3550 -96.3675 42° Northeast 418 481 15,900 -2,280 Descending Houston Center
01:02PM 29.4378 -96.2817 42° Northeast 406 467 13,700 -1,920 Descending Houston Center
01:03PM 29.5186 -96.1961 43° Northeast 392 451 12,100 -1,020 Descending Houston Center
01:04PM 29.5794 -96.0981 54° Northeast 381 438 11,700 -780 Descending Houston Center
01:05PM 29.6442 -95.9706 60° Northeast 366 421 10,400 -720 Descending Houston Center
01:06PM 29.6978 -95.8636 60° Northeast 366 421 10,100 -180 Descending Houston Center
01:07PM 29.7442 -95.7717 60° Northeast 361 415 10,100 -300 Level Houston Center
01:08PM 29.7889 -95.6844 59° Northeast 280 322 9,600 -1,020 Descending Houston Center
01:09PM 29.8281 -95.6053 60° Northeast 276 318 8,100 -1,500 Descending Houston Center
01:10PM 29.8669 -95.5261 60° Northeast 276 318 6,600 -1,020 Descending Houston Center
01:11PM 29.8956 -95.4481 67° East 271 312 6,100 -300 Descending Houston Center
01:12PM 29.8964 -95.3636 89° East 274 315 6,100  Level Houston Center
01:13PM 29.8961 -95.2694 90° East 274 315 6,100 -300 Level Houston Center
01:14PM 29.8964 -95.1803 90° East 262 302 5,500 -1,320 Descending Houston Center
01:15PM 29.9125 -95.1061 76° East 245 282 3,500 -1,800 Descending Houston Center
01:16PM 29.9592 -95.1342 332° Northwest 233 268 2,100 -1,140 Descending Houston Center
01:17PM 29.9703 -95.1581 298° West 242 278 1,900 -180 Descending Houston Center
01:17PM 29.9764 -95.2067 278° West 202 232 1,900 -540 Level Houston Center
01:18PM 29.9761 -95.2503 270° West 130 150 1,100 -900 Descending Houston Center
01:19PM 29.9781 -95.2733 276° West 160 184 600 -600 Descending Houston Center
01:20PM 29.9772 -95.3117 269° West 148 170 200 -420 Descending Houston Center